Time;durP1;ratioP1;P1;durP2;ratioP2;P2;SDS_P1;SDS_P2;PMS_P1;PMS_P2;Temp;Humidity;BMP_temperature;BMP_pressure;BME280_temperature;BME280_humidity;BME280_pressure;Samples;Min_cycle;Max_cycle;Signal;HPM_P1;HPM_P2
2022/04/20 00:00:49;;;;;;;3.35;1.42;;;;;;;;;;4988410;28;20293;-70
2022/04/20 00:03:14;;;;;;;2.53;1.20;;;;;;;;;;4999166;28;20026;-70
2022/04/20 00:05:39;;;;;;;2.77;1.60;;;;;;;;;;4990383;28;20269;-70
2022/04/20 00:08:04;;;;;;;5.05;1.27;;;;;;;;;;4989056;28;20630;-70
2022/04/20 00:10:30;;;;;;;3.63;1.67;;;;;;;;;;4986897;28;20036;-70
2022/04/20 00:12:56;;;;;;;2.55;1.17;;;;;;;;;;4990432;28;20030;-70
2022/04/20 00:15:21;;;;;;;3.47;1.40;;;;;;;;;;4984917;28;20068;-70
2022/04/20 00:17:46;;;;;;;2.80;1.33;;;;;;;;;;4994710;28;20026;-70
2022/04/20 00:20:11;;;;;;;2.60;1.67;;;;;;;;;;4990270;28;20026;-70
2022/04/20 00:22:36;;;;;;;2.70;1.17;;;;;;;;;;4990216;28;20281;-70
2022/04/20 00:25:02;;;;;;;4.38;1.60;;;;;;;;;;4993572;28;20033;-70
2022/04/20 00:27:27;;;;;;;2.92;1.40;;;;;;;;;;4990656;28;20026;-70
2022/04/20 00:29:52;;;;;;;3.97;1.67;;;;;;;;;;4988708;28;20033;-70
2022/04/20 00:32:17;;;;;;;4.05;1.38;;;;;;;;;;4991401;28;20033;-70
2022/04/20 00:34:42;;;;;;;2.30;1.57;;;;;;;;;;4989707;28;20022;-70
2022/04/20 00:37:08;;;;;;;8.07;1.58;;;;;;;;;;4987391;28;20766;-70
2022/04/20 00:39:34;;;;;;;3.08;1.83;;;;;;;;;;4990079;28;20026;-70
2022/04/20 00:41:59;;;;;;;7.28;1.52;;;;;;;;;;4988814;28;20434;-69
2022/04/20 00:44:25;;;;;;;1.80;1.37;;;;;;;;;;4988022;28;20026;-69
2022/04/20 00:46:52;;;;;;;3.10;1.40;;;;;;;;;;4989616;28;20402;-70
2022/04/20 00:49:17;;;;;;;5.80;1.30;;;;;;;;;;4973330;28;20486;-70
2022/04/20 00:51:52;;;;;;;2.20;1.30;;;;;;;;;;4990142;28;20117;-70
2022/04/20 00:54:18;;;;;;;5.82;1.38;;;;;;;;;;4990857;28;20026;-70
2022/04/20 00:56:43;;;;;;;2.83;1.50;;;;;;;;;;4989527;28;20379;-70
2022/04/20 00:59:08;;;;;;;2.23;1.40;;;;;;;;;;4970520;28;20128;-70
2022/04/20 01:01:34;;;;;;;3.80;1.60;;;;;;;;;;4990512;28;20285;-70
2022/04/20 01:03:59;;;;;;;2.40;1.30;;;;;;;;;;4990739;28;20077;-70
2022/04/20 01:06:24;;;;;;;11.20;1.67;;;;;;;;;;4988068;28;20022;-70
2022/04/20 01:08:49;;;;;;;2.70;1.13;;;;;;;;;;4973121;28;20448;-70
2022/04/20 01:11:14;;;;;;;2.22;1.20;;;;;;;;;;4995807;28;20289;-70
2022/04/20 01:13:40;;;;;;;2.00;1.30;;;;;;;;;;4991918;28;20034;-70
2022/04/20 01:16:05;;;;;;;3.35;1.40;;;;;;;;;;4998135;28;20023;-70
2022/04/20 01:18:30;;;;;;;5.03;1.98;;;;;;;;;;4993322;28;20022;-69
2022/04/20 01:20:55;;;;;;;8.07;1.65;;;;;;;;;;4993681;28;20034;-69
2022/04/20 01:23:20;;;;;;;1.85;1.30;;;;;;;;;;4991340;28;20058;-69
2022/04/20 01:25:46;;;;;;;3.17;1.70;;;;;;;;;;4994982;28;20018;-69
2022/04/20 01:28:11;;;;;;;7.10;1.52;;;;;;;;;;5001806;28;20604;-69
2022/04/20 01:30:37;;;;;;;6.20;1.60;;;;;;;;;;4987679;28;20438;-69
2022/04/20 01:33:02;;;;;;;3.65;1.50;;;;;;;;;;4992301;28;20510;-69
2022/04/20 01:35:28;;;;;;;4.13;1.63;;;;;;;;;;4995420;28;20034;-69
2022/04/20 01:37:53;;;;;;;3.67;1.45;;;;;;;;;;4995098;28;20034;-69
2022/04/20 01:40:18;;;;;;;6.45;1.70;;;;;;;;;;4992328;28;20022;-69
2022/04/20 01:42:43;;;;;;;2.88;1.70;;;;;;;;;;4993488;28;20029;-69
2022/04/20 01:45:09;;;;;;;7.10;2.00;;;;;;;;;;4991968;28;20018;-69
2022/04/20 01:47:34;;;;;;;6.68;1.80;;;;;;;;;;4990295;28;20022;-70
2022/04/20 01:49:59;;;;;;;10.65;2.00;;;;;;;;;;4992723;28;20014;-69
2022/04/20 01:52:24;;;;;;;7.65;1.83;;;;;;;;;;4991010;28;20019;-69
2022/04/20 01:54:49;;;;;;;3.28;1.50;;;;;;;;;;4993275;28;20018;-69
2022/04/20 01:57:15;;;;;;;5.68;1.90;;;;;;;;;;4984712;28;20026;-69
2022/04/20 01:59:40;;;;;;;3.58;1.75;;;;;;;;;;4993837;28;20455;-69
2022/04/20 02:04:49;;;;;;;6.10;1.83;;;;;;;;;;4991080;28;20081;-70
2022/04/20 02:07:14;;;;;;;6.70;1.85;;;;;;;;;;4993337;28;20495;-70
2022/04/20 02:09:39;;;;;;;7.60;1.92;;;;;;;;;;4990212;28;20026;-69
2022/04/20 02:12:05;;;;;;;4.40;2.67;;;;;;;;;;4996507;28;20080;-69
2022/04/20 02:14:30;;;;;;;2.60;1.48;;;;;;;;;;4992788;28;20285;-69
2022/04/20 02:16:55;;;;;;;3.70;1.92;;;;;;;;;;4992365;28;20024;-69
2022/04/20 02:19:21;;;;;;;4.38;1.40;;;;;;;;;;5004444;28;20029;-69
2022/04/20 02:21:46;;;;;;;2.90;1.58;;;;;;;;;;4986143;28;20089;-69
2022/04/20 02:24:13;;;;;;;2.67;1.30;;;;;;;;;;4991976;28;20494;-69
2022/04/20 02:26:38;;;;;;;3.70;1.92;;;;;;;;;;4996169;28;20753;-69
2022/04/20 02:29:04;;;;;;;2.90;1.63;;;;;;;;;;4998656;28;20093;-69
2022/04/20 02:31:29;;;;;;;6.33;2.00;;;;;;;;;;4991259;28;20280;-69
2022/04/20 02:33:54;;;;;;;5.93;1.80;;;;;;;;;;4992404;28;20286;-69
2022/04/20 02:36:19;;;;;;;3.13;1.75;;;;;;;;;;4996793;28;20626;-70
2022/04/20 02:38:45;;;;;;;4.25;1.65;;;;;;;;;;4991222;28;20129;-69
2022/04/20 02:41:10;;;;;;;2.20;1.52;;;;;;;;;;4989874;28;20120;-69
2022/04/20 02:43:35;;;;;;;9.40;2.20;;;;;;;;;;4996106;28;20029;-69
2022/04/20 02:46:01;;;;;;;4.15;2.30;;;;;;;;;;4994952;28;20018;-70
2022/04/20 02:48:26;;;;;;;2.53;1.33;;;;;;;;;;4989980;28;20050;-69
2022/04/20 02:50:51;;;;;;;3.83;1.80;;;;;;;;;;4989925;28;20065;-69
2022/04/20 02:53:16;;;;;;;4.13;1.67;;;;;;;;;;4989423;28;20312;-70
2022/04/20 02:55:44;;;;;;;3.72;2.00;;;;;;;;;;4989965;28;20758;-70
2022/04/20 02:58:10;;;;;;;7.35;2.45;;;;;;;;;;4993686;28;20026;-69
2022/04/20 03:00:35;;;;;;;5.60;1.65;;;;;;;;;;4990299;28;20048;-69
2022/04/20 03:03:00;;;;;;;4.05;1.70;;;;;;;;;;4990818;28;20022;-68
2022/04/20 03:05:25;;;;;;;4.10;1.80;;;;;;;;;;4993108;28;20068;-68
2022/04/20 03:07:51;;;;;;;3.58;1.50;;;;;;;;;;4990270;28;20270;-69
2022/04/20 03:10:16;;;;;;;3.22;1.80;;;;;;;;;;4991723;28;20382;-69
2022/04/20 03:12:41;;;;;;;7.88;1.88;;;;;;;;;;4989179;28;20089;-69
2022/04/20 03:15:07;;;;;;;3.42;1.45;;;;;;;;;;4990762;28;20054;-69
2022/04/20 03:17:32;;;;;;;3.58;1.98;;;;;;;;;;4990057;28;20479;-69
2022/04/20 03:19:57;;;;;;;3.77;1.70;;;;;;;;;;4989894;28;20023;-68
2022/04/20 03:22:22;;;;;;;6.55;2.00;;;;;;;;;;4989216;28;20295;-69
2022/04/20 03:24:47;;;;;;;4.32;1.65;;;;;;;;;;4989924;28;20018;-69
2022/04/20 03:27:12;;;;;;;2.45;1.50;;;;;;;;;;4989178;28;20029;-71
2022/04/20 03:29:38;;;;;;;6.67;1.70;;;;;;;;;;4977721;28;20427;-68
2022/04/20 03:32:07;;;;;;;3.10;2.20;;;;;;;;;;4988502;28;20368;-69
2022/04/20 03:34:33;;;;;;;7.50;2.33;;;;;;;;;;4992054;28;20272;-70
2022/04/20 03:36:58;;;;;;;5.28;1.80;;;;;;;;;;4990651;28;20059;-70
2022/04/20 03:39:23;;;;;;;2.53;1.60;;;;;;;;;;4990527;28;20471;-71
2022/04/20 03:41:48;;;;;;;7.95;1.88;;;;;;;;;;4989467;28;20289;-68
2022/04/20 03:44:13;;;;;;;6.93;1.87;;;;;;;;;;4991353;28;20467;-70
2022/04/20 03:46:39;;;;;;;6.00;1.80;;;;;;;;;;4993221;28;20281;-69
2022/04/20 03:49:04;;;;;;;4.17;2.13;;;;;;;;;;4989328;28;20463;-70
2022/04/20 03:51:29;;;;;;;5.57;1.95;;;;;;;;;;4994135;28;20272;-69
2022/04/20 03:53:54;;;;;;;4.20;1.90;;;;;;;;;;4993547;28;20023;-71
2022/04/20 03:56:19;;;;;;;9.53;2.03;;;;;;;;;;4990330;28;20281;-69
2022/04/20 03:58:44;;;;;;;4.67;1.80;;;;;;;;;;4989049;28;20282;-71
2022/04/20 04:01:10;;;;;;;7.25;1.85;;;;;;;;;;4989689;28;20297;-70
2022/04/20 04:03:35;;;;;;;4.13;1.83;;;;;;;;;;4992322;28;20407;-72
2022/04/20 04:06:00;;;;;;;3.10;1.70;;;;;;;;;;4989547;28;20198;-69
2022/04/20 04:08:25;;;;;;;6.13;2.10;;;;;;;;;;4991482;28;20018;-69
2022/04/20 04:10:51;;;;;;;3.42;1.65;;;;;;;;;;4989369;28;20489;-68
2022/04/20 04:13:17;;;;;;;3.13;1.93;;;;;;;;;;4988388;28;20372;-69
2022/04/20 04:15:43;;;;;;;4.53;2.50;;;;;;;;;;4993242;28;20355;-69
2022/04/20 04:18:09;;;;;;;3.78;2.00;;;;;;;;;;4988995;28;20044;-69
2022/04/20 04:20:34;;;;;;;2.15;1.23;;;;;;;;;;4990642;28;20387;-68
2022/04/20 04:22:59;;;;;;;7.15;1.40;;;;;;;;;;4989755;28;20064;-69
2022/04/20 04:25:25;;;;;;;5.80;1.77;;;;;;;;;;4989632;28;20014;-71
2022/04/20 04:27:50;;;;;;;3.50;1.70;;;;;;;;;;4989464;28;20030;-69
2022/04/20 04:30:15;;;;;;;3.37;1.50;;;;;;;;;;4989579;28;20010;-70
2022/04/20 04:32:40;;;;;;;4.47;2.00;;;;;;;;;;4991607;28;20661;-69
2022/04/20 04:35:06;;;;;;;4.80;1.83;;;;;;;;;;4989983;28;20454;-69
2022/04/20 04:37:33;;;;;;;7.22;1.88;;;;;;;;;;5047920;23;20360;-64
2022/04/20 04:39:59;;;;;;;3.00;1.60;;;;;;;;;;5028346;28;20021;-64
2022/04/20 04:42:25;;;;;;;4.63;1.80;;;;;;;;;;5010330;28;20029;-65
2022/04/20 04:44:50;;;;;;;4.85;1.88;;;;;;;;;;5025833;28;20489;-64
2022/04/20 04:49:59;;;;;;;4.55;1.70;;;;;;;;;;5028961;28;20105;-64
2022/04/20 04:52:24;;;;;;;6.72;1.80;;;;;;;;;;5028054;28;20104;-64
2022/04/20 04:54:50;;;;;;;5.13;1.93;;;;;;;;;;5027220;28;20029;-64
2022/04/20 04:57:15;;;;;;;3.38;1.50;;;;;;;;;;5026265;28;20276;-65
2022/04/20 04:59:41;;;;;;;3.08;1.77;;;;;;;;;;5033212;28;20029;-64
2022/04/20 05:02:06;;;;;;;2.92;1.52;;;;;;;;;;5025442;28;20029;-65
2022/04/20 05:04:32;;;;;;;3.72;1.58;;;;;;;;;;5026958;28;20225;-65
2022/04/20 05:06:57;;;;;;;6.78;1.60;;;;;;;;;;5026982;28;20048;-64
2022/04/20 05:09:22;;;;;;;3.28;1.40;;;;;;;;;;5027544;28;20088;-64
2022/04/20 05:11:49;;;;;;;3.53;1.40;;;;;;;;;;5026445;28;20385;-64
2022/04/20 05:14:14;;;;;;;7.30;1.60;;;;;;;;;;5035697;28;20021;-65
2022/04/20 05:16:39;;;;;;;4.80;1.75;;;;;;;;;;5032920;28;20028;-65
2022/04/20 05:19:04;;;;;;;6.47;2.20;;;;;;;;;;5026472;28;20485;-64
2022/04/20 05:21:30;;;;;;;7.47;2.00;;;;;;;;;;5028438;28;20030;-65
2022/04/20 05:23:58;;;;;;;9.43;2.03;;;;;;;;;;5027745;28;20101;-64
2022/04/20 05:26:23;;;;;;;2.65;1.50;;;;;;;;;;5030278;28;20070;-64
2022/04/20 05:28:48;;;;;;;2.83;1.57;;;;;;;;;;5030112;28;20108;-64
2022/04/20 05:31:13;;;;;;;4.65;1.75;;;;;;;;;;5033982;28;20354;-64
2022/04/20 05:33:38;;;;;;;4.70;1.50;;;;;;;;;;5028831;28;20395;-64
2022/04/20 05:36:04;;;;;;;5.47;1.60;;;;;;;;;;5025630;28;20335;-64
2022/04/20 05:43:57;;;;;;;10.95;1.70;;;;;;;;;;5024618;28;20105;-64
2022/04/20 05:46:22;;;;;;;3.47;1.60;;;;;;;;;;5015109;28;20580;-65
2022/04/20 05:48:47;;;;;;;4.93;1.80;;;;;;;;;;5025750;28;20268;-65
2022/04/20 05:51:13;;;;;;;5.80;1.83;;;;;;;;;;5010782;28;20871;-64
2022/04/20 05:53:38;;;;;;;3.20;1.88;;;;;;;;;;5026783;28;20828;-65
2022/04/20 05:56:04;;;;;;;5.80;1.75;;;;;;;;;;5029002;28;20133;-65
2022/04/20 05:58:29;;;;;;;4.35;1.50;;;;;;;;;;5035633;28;20027;-65
2022/04/20 06:00:55;;;;;;;8.03;1.70;;;;;;;;;;5013169;28;20026;-64
2022/04/20 06:03:20;;;;;;;2.28;1.45;;;;;;;;;;5031686;28;20333;-64
2022/04/20 06:05:45;;;;;;;3.53;1.70;;;;;;;;;;5031806;28;20045;-64
2022/04/20 06:08:10;;;;;;;3.37;1.70;;;;;;;;;;5033040;28;20744;-64
2022/04/20 06:10:36;;;;;;;3.73;1.77;;;;;;;;;;5033796;28;20275;-64
2022/04/20 06:13:01;;;;;;;4.07;1.98;;;;;;;;;;5031948;28;20296;-64
2022/04/20 06:15:26;;;;;;;8.38;1.98;;;;;;;;;;5032010;28;20745;-65
2022/04/20 06:17:51;;;;;;;2.80;1.67;;;;;;;;;;5035477;28;20029;-64
2022/04/20 06:20:17;;;;;;;5.93;1.70;;;;;;;;;;5038842;28;20025;-64
2022/04/20 06:22:42;;;;;;;2.22;1.30;;;;;;;;;;5029903;28;20022;-64
2022/04/20 06:25:08;;;;;;;5.75;2.03;;;;;;;;;;5029812;28;20014;-64
2022/04/20 06:27:33;;;;;;;9.60;1.67;;;;;;;;;;5037737;28;20499;-64
2022/04/20 06:29:59;;;;;;;4.85;1.83;;;;;;;;;;5029303;28;20033;-65
2022/04/20 06:32:24;;;;;;;5.22;1.42;;;;;;;;;;5031006;28;20057;-65
2022/04/20 06:34:53;;;;;;;4.30;1.90;;;;;;;;;;5028570;28;20032;-65
2022/04/20 06:37:19;;;;;;;7.30;1.70;;;;;;;;;;5029297;28;20108;-65
2022/04/20 06:39:44;;;;;;;7.85;1.88;;;;;;;;;;5027214;28;20563;-65
2022/04/20 06:42:09;;;;;;;7.82;2.08;;;;;;;;;;5035519;28;20017;-65
2022/04/20 06:44:35;;;;;;;6.00;1.77;;;;;;;;;;5027836;28;20014;-65
2022/04/20 06:47:00;;;;;;;3.20;1.63;;;;;;;;;;5030663;28;20021;-65
2022/04/20 06:49:25;;;;;;;4.10;1.67;;;;;;;;;;5030372;28;20299;-65
2022/04/20 07:00:02;;;;;;;4.32;1.85;;;;;;;;;;5030206;28;20029;-65
2022/04/20 07:02:28;;;;;;;6.65;1.77;;;;;;;;;;5030874;28;20029;-65
2022/04/20 07:04:53;;;;;;;6.13;1.90;;;;;;;;;;5027995;28;20374;-65
2022/04/20 07:07:18;;;;;;;3.27;1.70;;;;;;;;;;5028069;28;20018;-65
2022/04/20 07:09:43;;;;;;;2.80;1.73;;;;;;;;;;5026788;28;20021;-65
2022/04/20 07:12:08;;;;;;;7.13;1.60;;;;;;;;;;5027010;28;20025;-66
2022/04/20 07:14:34;;;;;;;2.83;1.17;;;;;;;;;;5027731;28;20602;-65
2022/04/20 07:17:00;;;;;;;2.85;1.63;;;;;;;;;;5021640;28;20280;-66
2022/04/20 07:19:26;;;;;;;2.38;1.65;;;;;;;;;;5025293;28;20126;-65
2022/04/20 07:21:51;;;;;;;4.27;1.60;;;;;;;;;;5030724;28;20509;-66
2022/04/20 07:24:16;;;;;;;5.80;2.08;;;;;;;;;;5043091;28;20025;-65
2022/04/20 07:26:41;;;;;;;2.30;1.70;;;;;;;;;;5036072;28;20029;-65
2022/04/20 07:29:07;;;;;;;5.75;1.50;;;;;;;;;;5027856;28;20023;-66
2022/04/20 07:31:32;;;;;;;2.47;1.50;;;;;;;;;;5039542;28;20071;-66
2022/04/20 07:33:58;;;;;;;4.37;1.83;;;;;;;;;;5028154;28;20272;-65
2022/04/20 07:36:23;;;;;;;3.58;1.98;;;;;;;;;;5027831;28;20033;-65
2022/04/20 07:38:49;;;;;;;2.53;1.67;;;;;;;;;;5027024;28;20027;-65
2022/04/20 07:41:14;;;;;;;3.40;1.95;;;;;;;;;;5031529;28;20025;-66
2022/04/20 07:43:39;;;;;;;2.45;1.48;;;;;;;;;;5032834;28;20360;-66
2022/04/20 07:46:04;;;;;;;1.27;0.93;;;;;;;;;;5024621;28;20021;-66
2022/04/20 07:48:30;;;;;;;1.20;0.87;;;;;;;;;;5023382;28;20036;-66
2022/04/20 07:50:55;;;;;;;2.30;1.60;;;;;;;;;;5022545;28;20284;-65
2022/04/20 07:53:20;;;;;;;3.50;1.50;;;;;;;;;;5025382;28;20485;-65
2022/04/20 07:55:49;;;;;;;3.10;1.65;;;;;;;;;;5035533;28;20303;-65
2022/04/20 07:58:14;;;;;;;2.80;1.45;;;;;;;;;;5031003;28;20025;-66
2022/04/20 08:00:40;;;;;;;10.00;1.77;;;;;;;;;;5035264;28;20131;-66
2022/04/20 08:03:11;;;;;;;3.85;1.50;;;;;;;;;;5032441;28;20013;-66
2022/04/20 08:05:37;;;;;;;6.65;1.38;;;;;;;;;;5016917;28;20428;-66
2022/04/20 08:08:02;;;;;;;3.88;1.17;;;;;;;;;;5029342;28;20022;-66
2022/04/20 08:10:27;;;;;;;5.38;2.03;;;;;;;;;;5029410;28;20041;-66
2022/04/20 08:12:52;;;;;;;6.17;1.90;;;;;;;;;;5034634;28;20017;-66
2022/04/20 08:15:17;;;;;;;3.17;1.25;;;;;;;;;;5037492;28;20028;-66
2022/04/20 08:17:44;;;;;;;7.50;1.50;;;;;;;;;;5028382;28;20049;-66
2022/04/20 08:20:09;;;;;;;3.47;1.95;;;;;;;;;;5032024;28;20021;-66
2022/04/20 08:22:41;;;;;;;3.05;1.35;;;;;;;;;;5033557;28;20497;-65
2022/04/20 08:25:07;;;;;;;3.72;1.52;;;;;;;;;;5035295;28;20437;-66
2022/04/20 08:27:32;;;;;;;3.70;1.40;;;;;;;;;;5031750;28;20049;-65
2022/04/20 08:29:57;;;;;;;5.90;1.60;;;;;;;;;;5027560;28;20017;-65
2022/04/20 08:32:24;;;;;;;3.70;1.93;;;;;;;;;;5035833;28;20264;-65
2022/04/20 08:34:50;;;;;;;5.43;1.58;;;;;;;;;;5041681;28;20290;-65
2022/04/20 08:37:16;;;;;;;2.90;1.27;;;;;;;;;;5043854;28;20040;-65
2022/04/20 08:39:41;;;;;;;4.40;1.83;;;;;;;;;;5029415;28;20029;-65
2022/04/20 08:42:07;;;;;;;3.88;1.60;;;;;;;;;;5033456;28;20025;-66
2022/04/20 08:44:35;;;;;;;3.13;1.63;;;;;;;;;;5034393;28;20354;-65
2022/04/20 08:47:01;;;;;;;3.08;1.67;;;;;;;;;;5027726;28;20022;-65
2022/04/20 08:49:26;;;;;;;3.20;1.52;;;;;;;;;;5030256;28;20017;-65
2022/04/20 08:54:35;;;;;;;6.18;1.50;;;;;;;;;;5030409;28;20084;-65
2022/04/20 08:57:16;;;;;;;4.10;1.63;;;;;;;;;;5034542;28;20510;-65
2022/04/20 08:59:44;;;;;;;4.22;1.65;;;;;;;;;;5028971;28;20149;-65
2022/04/20 09:02:11;;;;;;;6.43;1.67;;;;;;;;;;5029917;28;20018;-65
2022/04/20 09:04:36;;;;;;;3.55;1.33;;;;;;;;;;5030519;28;20767;-65
2022/04/20 09:07:03;;;;;;;5.32;1.40;;;;;;;;;;5028466;28;20021;-65
2022/04/20 09:09:30;;;;;;;2.95;1.17;;;;;;;;;;5032093;28;20112;-65
2022/04/20 09:11:59;;;;;;;4.80;1.33;;;;;;;;;;5032322;28;20040;-65
2022/04/20 09:14:24;;;;;;;2.85;1.67;;;;;;;;;;5046949;28;20025;-65
2022/04/20 09:16:54;;;;;;;3.35;1.02;;;;;;;;;;5036660;28;20026;-65
2022/04/20 09:19:22;;;;;;;3.57;1.40;;;;;;;;;;5043904;28;20013;-65
2022/04/20 09:21:47;;;;;;;4.25;2.00;;;;;;;;;;5041393;28;20099;-65
2022/04/20 09:24:13;;;;;;;2.60;1.60;;;;;;;;;;5036280;28;20096;-65
2022/04/20 09:26:49;;;;;;;2.67;1.50;;;;;;;;;;5039092;28;20780;-65
2022/04/20 09:29:15;;;;;;;5.57;1.83;;;;;;;;;;5043685;28;20431;-65
2022/04/20 09:31:43;;;;;;;5.00;1.58;;;;;;;;;;5049529;28;20028;-67
2022/04/20 09:34:08;;;;;;;15.90;1.80;;;;;;;;;;5041585;28;20020;-65
2022/04/20 09:36:40;;;;;;;1.73;1.00;;;;;;;;;;5034134;28;20038;-65
2022/04/20 09:39:05;;;;;;;3.17;1.40;;;;;;;;;;5034999;28;20026;-65
2022/04/20 09:41:31;;;;;;;8.30;1.58;;;;;;;;;;5034722;28;20041;-65
2022/04/20 09:44:09;;;;;;;1.70;1.10;;;;;;;;;;5038254;28;20016;-65
2022/04/20 09:49:33;;;;;;;4.10;1.60;;;;;;;;;;5050167;28;20528;-65
2022/04/20 09:52:07;;;;;;;6.95;1.70;;;;;;;;;;5038576;28;20017;-65
2022/04/20 09:54:32;;;;;;;2.60;1.30;;;;;;;;;;5038740;28;20083;-65
2022/04/20 09:57:10;;;;;;;5.30;1.70;;;;;;;;;;5046625;28;20020;-65
2022/04/20 09:59:35;;;;;;;4.35;1.40;;;;;;;;;;5040624;28;20036;-65
2022/04/20 10:02:09;;;;;;;4.82;1.40;;;;;;;;;;5035383;28;20021;-65
2022/04/20 10:04:34;;;;;;;7.20;1.48;;;;;;;;;;5036246;28;20025;-65
2022/04/20 10:07:00;;;;;;;7.93;1.50;;;;;;;;;;5036444;28;20021;-65
2022/04/20 10:09:25;;;;;;;2.87;1.33;;;;;;;;;;5036912;28;20018;-65
2022/04/20 10:11:50;;;;;;;2.43;1.10;;;;;;;;;;5034553;28;20287;-65
2022/04/20 10:17:00;;;;;;;3.42;1.60;;;;;;;;;;5040705;28;20166;-65
2022/04/20 10:19:27;;;;;;;2.60;1.60;;;;;;;;;;5048877;28;20104;-65
2022/04/20 10:21:53;;;;;;;4.65;1.08;;;;;;;;;;5044936;28;20033;-66
2022/04/20 10:24:21;;;;;;;2.03;1.23;;;;;;;;;;5037496;28;20381;-65
2022/04/20 10:26:47;;;;;;;4.32;1.38;;;;;;;;;;5033999;28;20014;-65
2022/04/20 10:29:23;;;;;;;2.90;1.20;;;;;;;;;;5036421;28;20029;-65
2022/04/20 10:31:53;;;;;;;3.58;1.52;;;;;;;;;;5039963;28;20109;-65
2022/04/20 10:34:21;;;;;;;1.73;1.20;;;;;;;;;;5045335;28;20060;-65
2022/04/20 10:36:59;;;;;;;3.20;1.42;;;;;;;;;;5034995;28;20108;-65
2022/04/20 10:39:26;;;;;;;2.97;1.50;;;;;;;;;;5045037;28;20100;-66
2022/04/20 10:42:15;;;;;;;5.68;1.30;;;;;;;;;;5043822;28;20029;-65
2022/04/20 10:44:58;;;;;;;6.60;1.15;;;;;;;;;;5029933;28;20029;-66
2022/04/20 10:47:27;;;;;;;4.63;1.13;;;;;;;;;;5032205;28;20533;-65
2022/04/20 10:49:53;;;;;;;3.00;1.45;;;;;;;;;;5045836;28;20025;-66
2022/04/20 10:52:21;;;;;;;1.88;1.00;;;;;;;;;;5032112;28;20029;-65
2022/04/20 10:54:53;;;;;;;3.30;1.30;;;;;;;;;;5031654;28;20029;-65
2022/04/20 10:57:32;;;;;;;4.93;1.45;;;;;;;;;;5038736;28;20023;-65
2022/04/20 11:00:16;;;;;;;6.32;1.35;;;;;;;;;;5031621;28;20034;-65
2022/04/20 11:02:50;;;;;;;5.70;1.58;;;;;;;;;;5029776;28;20022;-65
2022/04/20 11:05:19;;;;;;;4.75;1.50;;;;;;;;;;5029490;28;20017;-65
2022/04/20 11:08:00;;;;;;;4.03;1.15;;;;;;;;;;5029531;28;20163;-65
2022/04/20 11:10:26;;;;;;;2.05;1.13;;;;;;;;;;5033280;28;20013;-65
2022/04/20 11:18:59;;;;;;;3.95;1.30;;;;;;;;;;5031343;28;20029;-65
2022/04/20 11:21:24;;;;;;;2.92;1.00;;;;;;;;;;5033578;28;20025;-66
2022/04/20 11:23:49;;;;;;;1.87;0.80;;;;;;;;;;5036600;28;20025;-65
2022/04/20 11:26:20;;;;;;;3.13;0.90;;;;;;;;;;5037301;28;20025;-65
2022/04/20 11:28:47;;;;;;;7.50;1.50;;;;;;;;;;5033963;28;20256;-65
2022/04/20 11:31:12;;;;;;;3.88;1.10;;;;;;;;;;5037545;28;20111;-66
2022/04/20 11:33:38;;;;;;;4.85;1.30;;;;;;;;;;5043740;28;20092;-65
2022/04/20 11:36:04;;;;;;;4.60;1.58;;;;;;;;;;5022419;28;20029;-65
2022/04/20 11:38:40;;;;;;;1.95;1.20;;;;;;;;;;5029511;28;20029;-65
2022/04/20 11:41:05;;;;;;;1.90;1.10;;;;;;;;;;5036586;28;20033;-66
2022/04/20 11:43:31;;;;;;;2.95;1.13;;;;;;;;;;5034610;28;20018;-65
2022/04/20 11:45:56;;;;;;;7.32;1.63;;;;;;;;;;5029238;28;20021;-65
2022/04/20 11:48:21;;;;;;;2.00;1.33;;;;;;;;;;5030647;28;20013;-65
2022/04/20 11:50:59;;;;;;;6.70;1.50;;;;;;;;;;5034949;28;20295;-65
2022/04/20 11:53:38;;;;;;;2.15;1.13;;;;;;;;;;5032516;28;20048;-66
2022/04/20 11:56:04;;;;;;;2.87;1.33;;;;;;;;;;5030878;28;20029;-65
2022/04/20 11:58:31;;;;;;;4.43;1.40;;;;;;;;;;5031084;28;20110;-66
2022/04/20 12:01:00;;;;;;;1.88;1.13;;;;;;;;;;5030260;28;20025;-66
2022/04/20 12:03:27;;;;;;;4.67;1.50;;;;;;;;;;5031577;28;20538;-66
2022/04/20 12:06:02;;;;;;;3.35;1.17;;;;;;;;;;5027003;28;20830;-66
2022/04/20 12:08:28;;;;;;;2.65;1.50;;;;;;;;;;5031756;28;20022;-65
2022/04/20 12:10:53;;;;;;;2.70;1.10;;;;;;;;;;5031432;28;20060;-66
2022/04/20 12:13:25;;;;;;;3.35;1.80;;;;;;;;;;5033867;28;20371;-66
2022/04/20 12:15:58;;;;;;;2.65;1.40;;;;;;;;;;5025696;28;20025;-66
2022/04/20 12:18:24;;;;;;;5.13;1.50;;;;;;;;;;5020331;28;20083;-66
2022/04/20 12:20:49;;;;;;;4.63;1.58;;;;;;;;;;5026556;28;20029;-67
2022/04/20 12:23:16;;;;;;;3.33;1.55;;;;;;;;;;5032794;28;20021;-66
2022/04/20 12:25:41;;;;;;;4.00;0.80;;;;;;;;;;5031642;28;20033;-65
2022/04/20 12:28:35;;;;;;;3.50;1.20;;;;;;;;;;5035732;28;20481;-65
2022/04/20 12:30:59;;;;;;;1.80;0.95;;;;;;;;;;5025820;28;20645;-66
2022/04/20 12:33:24;;;;;;;;;;;;;;;;;;5037247;28;20013;-65
2022/04/20 12:36:03;;;;;;;5.35;1.77;;;;;;;;;;5020694;28;20522;-65
2022/04/20 12:38:29;;;;;;;3.72;1.13;;;;;;;;;;5037779;28;20017;-65
2022/04/20 12:40:54;;;;;;;4.57;1.02;;;;;;;;;;5011576;28;20035;-66
2022/04/20 12:43:19;;;;;;;7.57;1.05;;;;;;;;;;5028261;28;20021;-66
2022/04/20 12:45:44;;;;;;;1.83;1.30;;;;;;;;;;5028342;28;20104;-65
2022/04/20 12:48:12;;;;;;;1.50;1.00;;;;;;;;;;5023087;28;20033;-66
2022/04/20 12:50:45;;;;;;;3.05;1.13;;;;;;;;;;5028120;28;20260;-66
2022/04/20 12:53:10;;;;;;;2.60;1.10;;;;;;;;;;5031692;28;20036;-65
2022/04/20 12:55:36;;;;;;;2.67;1.20;;;;;;;;;;5025786;28;20021;-66
2022/04/20 13:03:30;;;;;;;2.20;1.10;;;;;;;;;;5034605;28;20083;-66
2022/04/20 13:05:55;;;;;;;1.42;0.95;;;;;;;;;;5027063;28;20028;-66
2022/04/20 13:08:21;;;;;;;7.40;1.27;;;;;;;;;;5035307;28;20021;-66
2022/04/20 13:10:49;;;;;;;1.65;0.82;;;;;;;;;;5029109;28;20136;-66
2022/04/20 13:13:14;;;;;;;4.47;0.90;;;;;;;;;;5027219;28;20099;-66
2022/04/20 13:15:39;;;;;;;3.10;1.10;;;;;;;;;;5025397;28;20017;-66
2022/04/20 13:18:04;;;;;;;3.43;1.40;;;;;;;;;;5035473;28;20104;-66
2022/04/20 13:20:31;;;;;;;1.98;1.05;;;;;;;;;;5027157;28;20268;-66
2022/04/20 13:22:56;;;;;;;5.32;1.20;;;;;;;;;;5027890;28;20424;-66
2022/04/20 13:28:06;;;;;;;2.25;1.02;;;;;;;;;;5029646;28;20028;-66
2022/04/20 13:30:35;;;;;;;4.80;1.13;;;;;;;;;;5026648;28;20601;-65
2022/04/20 13:33:01;;;;;;;1.75;1.20;;;;;;;;;;5028394;28;20017;-65
2022/04/20 13:35:26;;;;;;;3.28;1.25;;;;;;;;;;5026332;28;20037;-66
2022/04/20 13:37:54;;;;;;;2.63;1.27;;;;;;;;;;5024744;28;20417;-66
2022/04/20 13:40:20;;;;;;;5.40;1.13;;;;;;;;;;5023643;28;20950;-66
2022/04/20 13:42:45;;;;;;;2.08;1.10;;;;;;;;;;5031184;28;20100;-65
2022/04/20 13:45:10;;;;;;;6.72;1.67;;;;;;;;;;5032525;28;20025;-66
2022/04/20 13:47:36;;;;;;;2.17;1.10;;;;;;;;;;5028195;28;20113;-65
2022/04/20 13:50:01;;;;;;;3.50;1.20;;;;;;;;;;5027022;28;20021;-65
2022/04/20 13:52:27;;;;;;;2.15;1.27;;;;;;;;;;5027182;28;20703;-65
2022/04/20 13:54:56;;;;;;;3.03;1.35;;;;;;;;;;5015910;28;20025;-66
2022/04/20 13:57:21;;;;;;;4.97;1.00;;;;;;;;;;5023558;28;20120;-66
2022/04/20 13:59:47;;;;;;;2.47;1.05;;;;;;;;;;5032581;28;20100;-66
2022/04/20 14:02:12;;;;;;;3.63;1.20;;;;;;;;;;5031089;28;20035;-65
2022/04/20 14:04:37;;;;;;;1.52;1.05;;;;;;;;;;5024868;28;20079;-65
2022/04/20 14:07:03;;;;;;;3.97;1.33;;;;;;;;;;5032012;28;20413;-66
2022/04/20 14:09:28;;;;;;;1.83;1.15;;;;;;;;;;5032796;28;20402;-65
2022/04/20 14:11:53;;;;;;;2.40;1.20;;;;;;;;;;5020249;28;20060;-65
2022/04/20 14:14:18;;;;;;;3.53;1.10;;;;;;;;;;5021098;28;20264;-66
2022/04/20 14:16:43;;;;;;;2.43;1.37;;;;;;;;;;5021592;28;20284;-66
2022/04/20 14:19:09;;;;;;;3.17;1.10;;;;;;;;;;5024272;28;20060;-66
2022/04/20 14:21:34;;;;;;;1.42;0.85;;;;;;;;;;5024462;28;20033;-66
2022/04/20 14:24:00;;;;;;;6.47;1.13;;;;;;;;;;5024451;28;20029;-66
2022/04/20 14:32:12;;;;;;;3.03;1.10;;;;;;;;;;5024403;28;20369;-66
2022/04/20 14:34:50;;;;;;;9.25;1.17;;;;;;;;;;5030249;28;20470;-66
2022/04/20 14:37:18;;;;;;;3.03;1.02;;;;;;;;;;5027398;28;20489;-66
2022/04/20 14:39:43;;;;;;;7.55;1.60;;;;;;;;;;5024680;28;20493;-65
2022/04/20 14:42:09;;;;;;;3.70;1.90;;;;;;;;;;5030877;28;20029;-65
2022/04/20 14:44:35;;;;;;;3.65;2.33;;;;;;;;;;5029019;28;20037;-65
2022/04/20 14:47:02;;;;;;;3.58;1.73;;;;;;;;;;5026161;28;20089;-65
2022/04/20 14:49:27;;;;;;;6.40;1.88;;;;;;;;;;5006706;28;20018;-65
2022/04/20 14:51:53;;;;;;;2.85;1.50;;;;;;;;;;5023713;28;20086;-66
2022/04/20 14:54:18;;;;;;;6.05;1.50;;;;;;;;;;5025922;28;20029;-66
2022/04/20 14:56:43;;;;;;;9.60;2.30;;;;;;;;;;5032444;28;20482;-66
2022/04/20 14:59:08;;;;;;;4.20;1.80;;;;;;;;;;5029793;28;20088;-65
2022/04/20 15:01:35;;;;;;;7.32;2.78;;;;;;;;;;5031759;28;20779;-65
2022/04/20 15:04:01;;;;;;;4.20;2.15;;;;;;;;;;5025923;28;20092;-66
2022/04/20 15:06:26;;;;;;;4.20;1.98;;;;;;;;;;5028627;28;20104;-65
2022/04/20 15:08:52;;;;;;;10.93;2.40;;;;;;;;;;5030538;28;20036;-66
2022/04/20 15:11:17;;;;;;;4.10;2.17;;;;;;;;;;5028177;28;20025;-66
2022/04/20 15:13:48;;;;;;;2.78;1.80;;;;;;;;;;5030810;28;20025;-65
2022/04/20 15:16:13;;;;;;;6.03;2.15;;;;;;;;;;5027441;28;20040;-65
2022/04/20 15:18:39;;;;;;;2.92;2.20;;;;;;;;;;5037339;28;20025;-65
2022/04/20 15:21:04;;;;;;;10.15;2.40;;;;;;;;;;5028873;28;20090;-65
2022/04/20 15:23:29;;;;;;;5.30;2.28;;;;;;;;;;5027848;28;20029;-65
2022/04/20 15:25:55;;;;;;;4.15;2.28;;;;;;;;;;5036625;28;20013;-66